createdAt,value
2023-02-07T00:01:36.713Z,100.00
2023-02-07T00:04:04.962Z,100.00
2023-02-07T00:06:35.532Z,100.00
2023-02-07T00:09:06.370Z,100.00
2023-02-07T00:11:35.367Z,100.00
2023-02-07T00:14:04.745Z,100.00
2023-02-07T00:16:32.735Z,100.00
2023-02-07T00:19:01.235Z,100.00
2023-02-07T00:21:29.881Z,100.00
2023-02-07T00:23:58.908Z,100.00
2023-02-07T00:26:28.277Z,100.00
2023-02-07T00:28:57.140Z,100.00
2023-02-07T00:31:29.159Z,100.00
2023-02-07T00:34:00.509Z,100.00
2023-02-07T00:36:31.379Z,100.00
2023-02-07T00:39:00.728Z,100.00
2023-02-07T00:41:30.369Z,100.00
2023-02-07T00:43:58.915Z,100.00
2023-02-07T00:46:29.268Z,100.00
2023-02-07T00:48:57.551Z,100.00
2023-02-07T00:51:26.610Z,100.00
2023-02-07T00:53:55.054Z,100.00
2023-02-07T00:56:24.548Z,100.00
2023-02-07T00:58:52.968Z,100.00
2023-02-07T01:01:21.576Z,100.00
2023-02-07T01:03:52.741Z,100.00
2023-02-07T01:06:21.389Z,100.00
2023-02-07T01:08:49.786Z,100.00
2023-02-07T01:11:19.163Z,100.00
2023-02-07T01:13:51.798Z,100.00
2023-02-07T01:16:27.116Z,100.00
2023-02-07T01:18:56.798Z,100.00
2023-02-07T01:21:27.986Z,100.00
2023-02-07T01:23:57.163Z,100.00
2023-02-07T01:26:26.145Z,100.00
2023-02-07T01:28:54.842Z,100.00
2023-02-07T01:31:24.169Z,100.00
2023-02-07T01:33:56.489Z,100.00
2023-02-07T01:36:28.734Z,100.00
2023-02-07T01:38:57.294Z,100.00
2023-02-07T01:41:26.679Z,100.00
2023-02-07T01:43:58.383Z,100.00
2023-02-07T01:46:27.170Z,100.00
2023-02-07T01:49:01.674Z,100.00
2023-02-07T01:51:33.375Z,100.00
2023-02-07T01:54:06.155Z,100.00
2023-02-07T01:56:36.699Z,100.00
2023-02-07T01:59:06.857Z,100.00
2023-02-07T02:01:35.957Z,100.00
2023-02-07T02:04:05.811Z,100.00
2023-02-07T02:06:35.198Z,100.00
2023-02-07T02:09:10.459Z,100.00
2023-02-07T02:11:54.846Z,100.00
2023-02-07T02:14:44.644Z,100.00
2023-02-07T02:17:23.960Z,100.00
2023-02-07T02:20:26.643Z,100.00
2023-02-07T02:23:07.895Z,100.00
2023-02-07T02:26:04.321Z,100.00
2023-02-07T02:29:09.492Z,100.00
2023-02-07T02:32:09.094Z,100.00
2023-02-07T02:34:45.150Z,100.00
2023-02-07T02:37:21.291Z,100.00
2023-02-07T02:39:55.129Z,100.00
2023-02-07T02:42:29.517Z,100.00
2023-02-07T02:45:01.447Z,100.00
2023-02-07T02:47:32.323Z,100.00
2023-02-07T02:50:02.705Z,100.00
2023-02-07T02:52:49.579Z,100.00
2023-02-07T02:55:33.761Z,100.00
2023-02-07T02:58:11.374Z,100.00
2023-02-07T03:00:55.328Z,100.00
2023-02-07T03:03:40.919Z,100.00
2023-02-07T03:06:22.571Z,100.00
2023-02-07T03:08:59.318Z,100.00
2023-02-07T03:11:31.574Z,100.00
2023-02-07T03:14:07.312Z,100.00
2023-02-07T03:16:41.543Z,100.00
2023-02-07T03:19:15.032Z,100.00
2023-02-07T03:21:50.179Z,100.00
2023-02-07T03:24:23.768Z,100.00
2023-02-07T03:26:59.433Z,100.00
2023-02-07T03:29:29.801Z,100.00
2023-02-07T03:32:01.688Z,100.00
2023-02-07T03:34:36.383Z,100.00
2023-02-07T03:37:11.834Z,100.00
2023-02-07T03:39:40.727Z,100.00
2023-02-07T03:42:16.020Z,100.00
2023-02-07T03:44:46.282Z,100.00
2023-02-07T03:47:14.594Z,100.00
2023-02-07T03:49:45.085Z,100.00
2023-02-07T03:52:14.460Z,100.00
2023-02-07T03:54:42.522Z,100.00
2023-02-07T03:57:10.555Z,100.00
2023-02-07T03:59:38.853Z,100.00
2023-02-07T04:02:07.763Z,100.00
2023-02-07T04:04:35.904Z,100.00
2023-02-07T04:07:04.253Z,100.00
2023-02-07T04:09:36.300Z,100.00
2023-02-07T04:12:04.869Z,100.00
2023-02-07T04:14:33.115Z,100.00
2023-02-07T04:17:01.713Z,100.00
2023-02-07T04:19:29.743Z,100.00
2023-02-07T04:21:57.686Z,100.00
2023-02-07T04:24:26.044Z,100.00
2023-02-07T04:26:55.976Z,100.00
2023-02-07T04:29:23.974Z,100.00
2023-02-07T04:31:52.516Z,100.00
2023-02-07T04:34:21.072Z,100.00
2023-02-07T04:36:49.407Z,100.00
2023-02-07T04:39:17.628Z,100.00
2023-02-07T04:41:46.160Z,100.00
2023-02-07T04:44:15.906Z,100.00
2023-02-07T04:46:43.970Z,100.00
2023-02-07T04:49:12.374Z,100.00
2023-02-07T04:51:41.045Z,100.00
2023-02-07T04:54:09.324Z,100.00
2023-02-07T04:56:37.593Z,100.00
2023-02-07T04:59:05.533Z,100.00
2023-02-07T05:01:34.990Z,100.00
2023-02-07T05:04:03.458Z,100.00
2023-02-07T05:06:31.357Z,100.00
2023-02-07T05:08:59.910Z,100.00
2023-02-07T05:11:27.963Z,100.00
2023-02-07T05:13:58.500Z,100.00
2023-02-07T05:16:26.575Z,100.00
2023-02-07T05:18:58.248Z,100.00
2023-02-07T05:21:26.545Z,100.00
2023-02-07T05:23:54.408Z,100.00
2023-02-07T05:26:24.782Z,100.00
2023-02-07T05:28:52.934Z,100.00
2023-02-07T05:31:21.148Z,100.00
2023-02-07T05:33:49.318Z,100.00
2023-02-07T05:36:18.682Z,100.00
2023-02-07T05:38:46.823Z,100.00
2023-02-07T05:41:17.396Z,100.00
2023-02-07T05:43:45.653Z,100.00
2023-02-07T05:46:16.420Z,100.00
2023-02-07T05:48:45.132Z,100.00
2023-02-07T05:51:13.387Z,100.00
2023-02-07T05:53:43.177Z,100.00
2023-02-07T05:56:11.505Z,100.00
2023-02-07T05:58:39.582Z,100.00
2023-02-07T06:01:07.852Z,100.00
2023-02-07T06:03:35.946Z,100.00
2023-02-07T06:06:03.889Z,100.00
2023-02-07T06:08:33.644Z,100.00
2023-02-07T06:11:03.383Z,100.00
2023-02-07T06:13:31.532Z,100.00
2023-02-07T06:16:00.110Z,100.00
2023-02-07T06:18:31.395Z,100.00
2023-02-07T06:20:59.594Z,100.00
2023-02-07T06:23:27.659Z,100.00
2023-02-07T06:25:55.527Z,100.00
2023-02-07T06:28:25.236Z,100.00
2023-02-07T06:30:53.810Z,100.00
2023-02-07T06:33:22.106Z,100.00
2023-02-07T06:35:50.155Z,100.00
2023-02-07T06:38:21.112Z,100.00
2023-02-07T06:40:49.889Z,100.00
2023-02-07T06:43:18.239Z,100.00
2023-02-07T06:45:47.899Z,100.00
2023-02-07T06:48:16.013Z,100.00
2023-02-07T06:50:43.821Z,100.00
2023-02-07T06:53:14.387Z,100.00
2023-02-07T06:55:42.514Z,100.00
2023-02-07T06:58:10.789Z,100.00
2023-02-07T07:00:39.515Z,100.00
2023-02-07T07:03:14.649Z,100.00
2023-02-07T07:05:43.950Z,100.00
2023-02-07T07:08:15.330Z,100.00
2023-02-07T07:10:43.643Z,100.00
2023-02-07T07:13:11.615Z,100.00
2023-02-07T07:15:40.084Z,100.00
2023-02-07T07:18:08.838Z,100.00
2023-02-07T07:20:38.296Z,100.00
2023-02-07T07:23:09.630Z,100.00
2023-02-07T07:25:38.049Z,100.00
2023-02-07T07:28:06.669Z,100.00
2023-02-07T07:30:35.065Z,100.00
2023-02-07T07:33:03.332Z,100.00
2023-02-07T07:35:31.243Z,100.00
2023-02-07T07:38:00.781Z,100.00
2023-02-07T07:40:29.097Z,100.00
2023-02-07T07:42:57.400Z,100.00
2023-02-07T07:45:34.242Z,100.00
2023-02-07T07:48:02.507Z,100.00
2023-02-07T07:50:31.010Z,100.00
2023-02-07T07:53:00.560Z,100.00
2023-02-07T07:55:29.110Z,100.00
2023-02-07T07:57:57.055Z,100.00
2023-02-07T08:00:27.253Z,100.00
2023-02-07T08:02:57.754Z,100.00
2023-02-07T08:05:25.930Z,100.00
2023-02-07T08:07:53.993Z,100.00
2023-02-07T08:10:23.394Z,100.00
2023-02-07T08:12:51.950Z,100.00
2023-02-07T08:15:20.340Z,100.00
2023-02-07T08:17:48.591Z,100.00
2023-02-07T08:20:19.183Z,100.00
2023-02-07T08:22:50.055Z,100.00
2023-02-07T08:25:18.617Z,100.00
2023-02-07T08:27:48.269Z,100.00
2023-02-07T08:30:18.847Z,100.00
2023-02-07T08:32:47.080Z,100.00
2023-02-07T08:35:15.303Z,100.00
2023-02-07T08:37:44.118Z,100.00
2023-02-07T08:40:13.309Z,100.00
2023-02-07T08:42:41.778Z,100.00
2023-02-07T08:45:12.437Z,100.00
2023-02-07T08:47:40.757Z,100.00
2023-02-07T08:50:10.337Z,100.00
2023-02-07T08:52:39.048Z,100.00
2023-02-07T08:55:08.776Z,100.00
2023-02-07T08:57:37.153Z,100.00
2023-02-07T09:00:07.208Z,100.00
2023-02-07T09:02:37.081Z,100.00
2023-02-07T09:05:05.584Z,100.00
2023-02-07T09:07:33.709Z,100.00
2023-02-07T09:10:06.669Z,100.00
2023-02-07T09:12:35.408Z,100.00
2023-02-07T09:15:04.284Z,100.00
2023-02-07T09:17:33.433Z,100.00
2023-02-07T09:20:04.315Z,100.00
2023-02-07T09:22:33.060Z,100.00
2023-02-07T09:25:01.116Z,100.00
2023-02-07T09:27:29.510Z,100.00
2023-02-07T09:29:57.707Z,100.00
2023-02-07T09:32:28.144Z,100.00
2023-02-07T09:34:58.336Z,100.00
2023-02-07T09:37:27.971Z,100.00
2023-02-07T09:39:57.093Z,100.00
2023-02-07T09:42:34.220Z,100.00
2023-02-07T09:45:06.195Z,100.00
2023-02-07T09:47:38.267Z,100.00
2023-02-07T09:50:13.912Z,100.00
2023-02-07T09:52:47.962Z,100.00
2023-02-07T09:55:20.259Z,100.00
2023-02-07T09:57:52.582Z,100.00
2023-02-07T10:00:27.032Z,100.00
2023-02-07T10:02:59.952Z,100.00
2023-02-07T10:05:38.244Z,100.00
2023-02-07T10:08:13.924Z,100.00
2023-02-07T10:10:47.759Z,100.00
2023-02-07T10:13:38.596Z,100.00
2023-02-07T10:16:18.070Z,100.00
2023-02-07T10:18:50.551Z,100.00
2023-02-07T10:21:32.923Z,100.00
2023-02-07T10:24:31.636Z,100.00
2023-02-07T10:27:06.373Z,100.00
2023-02-07T10:29:52.525Z,100.00
2023-02-07T10:32:24.236Z,100.00
2023-02-07T10:34:56.474Z,99.77
2023-02-07T10:37:28.456Z,98.27
2023-02-07T10:40:04.967Z,96.96
2023-02-07T10:42:38.583Z,95.52
2023-02-07T10:45:15.651Z,93.51
2023-02-07T10:47:44.138Z,94.08
2023-02-07T10:50:24.751Z,91.63
2023-02-07T10:53:00.948Z,90.50
2023-02-07T10:55:41.438Z,93.83
2023-02-07T10:58:22.929Z,95.20
2023-02-07T11:00:53.690Z,92.60
2023-02-07T11:03:23.413Z,88.22
2023-02-07T11:05:57.941Z,88.36
2023-02-07T11:08:29.797Z,88.11
2023-02-07T11:11:00.833Z,84.51
2023-02-07T11:13:30.851Z,85.21
2023-02-07T11:16:03.997Z,82.87
2023-02-07T11:18:45.243Z,83.45
2023-02-07T11:21:28.243Z,79.76
2023-02-07T11:24:00.752Z,78.33
2023-02-07T11:26:34.032Z,77.42
2023-02-07T11:29:14.990Z,75.71
2023-02-07T11:31:45.210Z,75.56
2023-02-07T11:34:30.225Z,79.56
2023-02-07T11:37:12.446Z,76.70
2023-02-07T11:39:41.484Z,73.29
2023-02-07T11:42:14.950Z,71.05
2023-02-07T11:44:45.153Z,69.29
2023-02-07T11:47:17.014Z,67.82
2023-02-07T11:49:49.300Z,71.36
2023-02-07T11:52:18.238Z,68.78
2023-02-07T11:54:53.989Z,66.33
2023-02-07T11:57:25.300Z,69.03
2023-02-07T12:00:06.675Z,68.03
2023-02-07T12:02:42.063Z,71.94
2023-02-07T12:05:18.074Z,74.47
2023-02-07T12:07:51.048Z,75.46
2023-02-07T12:10:24.404Z,73.52
2023-02-07T12:13:00.510Z,72.83
2023-02-07T12:15:36.797Z,70.92
2023-02-07T12:18:11.326Z,72.50
2023-02-07T12:20:43.615Z,67.78
2023-02-07T12:23:41.262Z,65.78
2023-02-07T12:26:17.840Z,69.12
2023-02-07T12:29:01.298Z,66.46
2023-02-07T12:31:45.325Z,67.52
2023-02-07T12:34:19.911Z,66.01
2023-02-07T12:36:55.197Z,63.54
2023-02-07T12:39:31.348Z,62.26
2023-02-07T12:42:08.310Z,61.59
2023-02-07T12:44:43.179Z,62.33
2023-02-07T12:47:21.436Z,61.41
2023-02-07T12:50:04.359Z,60.81
2023-02-07T12:52:43.147Z,60.08
2023-02-07T12:55:21.523Z,59.37
2023-02-07T12:57:58.190Z,59.10
2023-02-07T13:00:38.958Z,58.15
2023-02-07T13:03:20.989Z,56.95
2023-02-07T13:06:03.038Z,55.19
2023-02-07T13:08:43.854Z,52.39
2023-02-07T13:11:26.037Z,53.72
2023-02-07T13:14:09.184Z,54.62
2023-02-07T13:16:47.562Z,52.78
2023-02-07T13:19:24.090Z,48.59
2023-02-07T13:21:59.442Z,47.54
2023-02-07T13:24:31.844Z,46.04
2023-02-07T13:27:06.534Z,43.66
2023-02-07T13:29:36.635Z,41.69
2023-02-07T13:32:12.395Z,41.42
2023-02-07T13:34:46.619Z,41.92
2023-02-07T13:37:17.654Z,40.20
2023-02-07T13:39:57.301Z,42.84
2023-02-07T13:42:32.388Z,44.17
2023-02-07T13:45:07.784Z,45.38
2023-02-07T13:47:58.100Z,43.36
2023-02-07T13:50:41.548Z,42.64
2023-02-07T13:53:26.379Z,40.60
2023-02-07T13:55:55.168Z,38.96
2023-02-07T13:59:10.209Z,37.66
2023-02-07T14:01:46.946Z,37.99
2023-02-07T14:04:16.510Z,38.32
2023-02-07T14:06:46.919Z,36.73
2023-02-07T14:09:19.330Z,37.37
2023-02-07T14:11:50.191Z,38.74
2023-02-07T14:14:26.255Z,39.50
2023-02-07T14:16:56.839Z,41.76
2023-02-07T14:19:54.634Z,41.13
2023-02-07T14:22:26.674Z,41.13
2023-02-07T14:25:21.284Z,41.08
2023-02-07T14:28:19.510Z,40.75
2023-02-07T14:31:14.510Z,41.17
2023-02-07T14:33:43.213Z,39.73
2023-02-07T14:36:26.354Z,41.95
2023-02-07T14:39:04.687Z,42.25
2023-02-07T14:41:36.284Z,40.37
2023-02-07T14:44:09.871Z,39.18
2023-02-07T14:46:42.106Z,41.04
2023-02-07T14:49:19.753Z,40.76
2023-02-07T14:51:52.972Z,40.03
2023-02-07T14:54:29.036Z,39.73
2023-02-07T14:57:07.810Z,40.17
2023-02-07T14:59:41.924Z,40.76
2023-02-07T15:02:37.180Z,41.72
2023-02-07T15:05:27.403Z,40.77
2023-02-07T15:08:07.370Z,39.55
2023-02-07T15:10:38.694Z,41.08
2023-02-07T15:13:19.393Z,40.29
2023-02-07T15:15:52.473Z,41.81
2023-02-07T15:18:23.830Z,41.48
2023-02-07T15:20:57.503Z,40.38
2023-02-07T15:23:31.530Z,41.37
2023-02-07T15:26:05.198Z,41.90
2023-02-07T15:28:33.995Z,41.31
2023-02-07T15:31:04.851Z,42.27
2023-02-07T15:33:36.783Z,40.58
2023-02-07T15:36:27.205Z,41.49
2023-02-07T15:38:57.870Z,43.27
2023-02-07T15:41:27.219Z,43.40
2023-02-07T15:43:59.509Z,43.78
2023-02-07T15:46:28.606Z,44.83
2023-02-07T15:48:58.205Z,45.26
2023-02-07T15:51:29.903Z,44.49
2023-02-07T15:54:02.729Z,45.76
2023-02-07T15:56:32.893Z,45.74
2023-02-07T15:59:10.527Z,45.51
2023-02-07T16:01:39.341Z,45.77
2023-02-07T16:04:08.621Z,46.03
2023-02-07T16:06:37.155Z,47.39
2023-02-07T16:09:06.880Z,46.90
2023-02-07T16:11:40.933Z,48.24
2023-02-07T16:14:21.884Z,49.80
2023-02-07T16:16:53.150Z,52.07
2023-02-07T16:19:26.494Z,52.58
2023-02-07T16:22:03.148Z,53.14
2023-02-07T16:24:36.235Z,54.72
2023-02-07T16:27:05.949Z,55.65
2023-02-07T16:29:38.648Z,54.43
2023-02-07T16:32:07.552Z,56.81
2023-02-07T16:34:39.172Z,57.20
2023-02-07T16:37:14.578Z,59.39
2023-02-07T16:39:43.993Z,61.71
2023-02-07T16:42:16.427Z,63.46
2023-02-07T16:44:47.362Z,64.83
2023-02-07T16:47:15.797Z,65.43
2023-02-07T16:49:45.242Z,68.38
2023-02-07T16:52:13.444Z,68.92
2023-02-07T16:54:41.710Z,70.39
2023-02-07T16:57:12.793Z,72.57
2023-02-07T16:59:41.335Z,76.24
2023-02-07T17:02:15.246Z,83.92
2023-02-07T17:04:43.781Z,91.49
2023-02-07T17:07:12.250Z,91.80
2023-02-07T17:09:40.957Z,90.16
2023-02-07T17:12:10.341Z,92.91
2023-02-07T17:14:40.052Z,93.10
2023-02-07T17:17:08.340Z,98.60
2023-02-07T17:19:36.725Z,100.00
2023-02-07T17:22:05.141Z,100.00
2023-02-07T17:24:35.607Z,100.00
2023-02-07T17:27:03.737Z,100.00
2023-02-07T17:29:34.762Z,100.00
2023-02-07T17:32:04.670Z,100.00
2023-02-07T17:34:32.743Z,100.00
2023-02-07T17:37:04.323Z,100.00
2023-02-07T17:39:32.506Z,100.00
2023-02-07T17:42:00.516Z,100.00
2023-02-07T17:44:28.693Z,100.00
2023-02-07T17:46:59.057Z,100.00
2023-02-07T17:49:28.761Z,100.00
2023-02-07T17:51:57.009Z,100.00
2023-02-07T17:54:25.173Z,100.00
2023-02-07T17:56:55.692Z,100.00
2023-02-07T17:59:25.961Z,100.00
2023-02-07T18:01:54.520Z,100.00
2023-02-07T18:04:23.341Z,100.00
2023-02-07T18:06:52.866Z,100.00
2023-02-07T18:09:21.445Z,100.00
2023-02-07T18:11:49.778Z,100.00
2023-02-07T18:14:18.112Z,100.00
2023-02-07T18:16:47.072Z,100.00
2023-02-07T18:19:17.126Z,100.00
2023-02-07T18:21:45.159Z,100.00
2023-02-07T18:24:16.971Z,100.00
2023-02-07T18:26:46.367Z,100.00
2023-02-07T18:29:17.050Z,100.00
2023-02-07T18:31:45.897Z,100.00
2023-02-07T18:34:14.151Z,100.00
2023-02-07T18:36:43.266Z,100.00
2023-02-07T18:39:14.040Z,100.00
2023-02-07T18:41:43.849Z,100.00
2023-02-07T18:44:12.168Z,100.00
2023-02-07T18:46:40.338Z,100.00
2023-02-07T18:49:08.483Z,100.00
2023-02-07T18:51:36.327Z,100.00
2023-02-07T18:54:06.348Z,100.00
2023-02-07T18:56:35.744Z,100.00
2023-02-07T18:59:05.777Z,100.00
2023-02-07T19:01:35.199Z,100.00
2023-02-07T19:04:04.289Z,100.00
2023-02-07T19:06:34.579Z,100.00
2023-02-07T19:09:03.410Z,100.00
2023-02-07T19:11:32.297Z,100.00
2023-02-07T19:14:01.038Z,100.00
2023-02-07T19:16:34.963Z,100.00
2023-02-07T19:19:03.562Z,100.00
2023-02-07T19:21:35.740Z,100.00
2023-02-07T19:24:09.369Z,100.00
2023-02-07T19:26:37.867Z,100.00
2023-02-07T19:29:06.425Z,100.00
2023-02-07T19:31:38.492Z,100.00
2023-02-07T19:34:07.032Z,100.00
2023-02-07T19:36:35.504Z,100.00
2023-02-07T19:39:05.217Z,100.00
2023-02-07T19:41:34.554Z,100.00
2023-02-07T19:44:02.957Z,100.00
2023-02-07T19:46:35.414Z,100.00
2023-02-07T19:49:04.480Z,100.00
2023-02-07T19:51:33.306Z,100.00
2023-02-07T19:54:01.955Z,100.00
2023-02-07T19:56:33.374Z,100.00
2023-02-07T19:59:03.717Z,100.00
2023-02-07T20:01:34.297Z,100.00
2023-02-07T20:04:05.729Z,100.00
2023-02-07T20:06:35.821Z,100.00
2023-02-07T20:09:08.007Z,100.00
2023-02-07T20:11:36.776Z,100.00
2023-02-07T20:14:05.952Z,100.00
2023-02-07T20:16:38.769Z,100.00
2023-02-07T20:19:08.883Z,100.00
2023-02-07T20:21:38.054Z,100.00
2023-02-07T20:24:06.485Z,100.00
2023-02-07T20:26:37.608Z,100.00
2023-02-07T20:29:09.558Z,100.00
2023-02-07T20:31:38.890Z,100.00
2023-02-07T20:34:09.099Z,100.00
2023-02-07T20:36:41.262Z,100.00
2023-02-07T20:39:12.367Z,100.00
2023-02-07T20:41:46.069Z,100.00
2023-02-07T20:44:16.938Z,100.00
2023-02-07T20:46:46.686Z,100.00
2023-02-07T20:49:20.006Z,100.00
2023-02-07T20:51:50.120Z,100.00
2023-02-07T20:54:19.717Z,100.00
2023-02-07T20:56:50.078Z,100.00
2023-02-07T20:59:20.173Z,100.00
2023-02-07T21:01:48.306Z,100.00
2023-02-07T21:04:20.053Z,100.00
2023-02-07T21:06:48.033Z,100.00
2023-02-07T21:09:18.463Z,100.00
2023-02-07T21:11:49.332Z,100.00
2023-02-07T21:14:22.736Z,100.00
2023-02-07T21:16:52.506Z,100.00
2023-02-07T21:19:25.154Z,100.00
2023-02-07T21:21:54.943Z,100.00
2023-02-07T21:24:23.775Z,100.00
2023-02-07T21:26:53.616Z,100.00
2023-02-07T21:29:22.852Z,100.00
2023-02-07T21:31:52.320Z,100.00
2023-02-07T21:34:25.743Z,100.00
2023-02-07T21:36:54.225Z,100.00
2023-02-07T21:39:24.234Z,100.00
2023-02-07T21:41:54.740Z,100.00
2023-02-07T21:44:22.810Z,100.00
2023-02-07T21:46:52.248Z,100.00
2023-02-07T21:49:24.456Z,100.00
2023-02-07T21:51:54.222Z,100.00
2023-02-07T21:54:23.076Z,100.00
2023-02-07T21:56:51.438Z,100.00
2023-02-07T21:59:21.292Z,100.00
2023-02-07T22:01:49.644Z,100.00
2023-02-07T22:04:17.864Z,100.00
2023-02-07T22:06:56.601Z,100.00
2023-02-07T22:09:24.869Z,100.00
2023-02-07T22:11:54.488Z,100.00
2023-02-07T22:14:25.388Z,100.00
2023-02-07T22:16:55.816Z,100.00
2023-02-07T22:19:24.914Z,100.00
2023-02-07T22:21:54.990Z,100.00
2023-02-07T22:24:23.082Z,100.00
2023-02-07T22:26:51.327Z,100.00
2023-02-07T22:29:19.631Z,100.00
2023-02-07T22:31:48.598Z,100.00
2023-02-07T22:34:17.002Z,100.00
2023-02-07T22:36:46.454Z,100.00
2023-02-07T22:39:20.516Z,100.00
2023-02-07T22:41:48.926Z,100.00
2023-02-07T22:44:17.260Z,100.00
2023-02-07T22:46:45.355Z,100.00
2023-02-07T22:49:13.579Z,100.00
2023-02-07T22:51:41.723Z,100.00
2023-02-07T22:54:15.815Z,100.00
2023-02-07T22:56:50.088Z,100.00
2023-02-07T22:59:18.095Z,100.00
2023-02-07T23:01:46.680Z,100.00
2023-02-07T23:04:18.026Z,100.00
2023-02-07T23:06:47.762Z,100.00
2023-02-07T23:09:18.792Z,100.00
2023-02-07T23:11:47.021Z,100.00
2023-02-07T23:14:17.304Z,100.00
2023-02-07T23:16:45.296Z,100.00
2023-02-07T23:19:15.640Z,100.00
2023-02-07T23:21:43.733Z,100.00
2023-02-07T23:24:12.418Z,100.00
2023-02-07T23:26:41.171Z,100.00
2023-02-07T23:29:09.757Z,100.00
2023-02-07T23:31:39.541Z,100.00
2023-02-07T23:34:10.557Z,100.00
2023-02-07T23:36:39.481Z,100.00
2023-02-07T23:39:07.398Z,100.00
2023-02-07T23:41:35.929Z,100.00
2023-02-07T23:44:04.602Z,100.00
2023-02-07T23:46:33.599Z,100.00
2023-02-07T23:49:03.113Z,100.00
2023-02-07T23:51:31.174Z,100.00
2023-02-07T23:53:59.231Z,100.00
2023-02-07T23:56:27.443Z,100.00
2023-02-07T23:58:55.705Z,100.00
